Time;durP1;ratioP1;P1;durP2;ratioP2;P2;SDS_P1;SDS_P2;PMS_P1;PMS_P2;Temp;Humidity;BMP_temperature;BMP_pressure;BME280_temperature;BME280_humidity;BME280_pressure;Samples;Min_cycle;Max_cycle;Signal;HPM_P1;HPM_P2
2023/07/03 00:00:17;;;;;;;17.30;10.53;;;;;;;18.01;60.66;97821.16;5053314;28;20232;-76
2023/07/03 00:02:46;;;;;;;16.80;9.87;;;;;;;17.98;61.46;97820.88;5053341;28;20190;-76
2023/07/03 00:05:12;;;;;;;14.50;9.73;;;;;;;17.98;63.45;97826.28;5053065;28;20299;-76
2023/07/03 00:07:40;;;;;;;15.60;10.10;;;;;;;17.93;62.41;97823.59;5053155;28;20225;-76
2023/07/03 00:10:07;;;;;;;16.87;9.93;;;;;;;17.83;62.10;97823.59;5053143;28;20206;-76
2023/07/03 00:12:34;;;;;;;16.73;9.77;;;;;;;17.85;62.79;97824.94;5052825;28;20217;-76
2023/07/03 00:15:01;;;;;;;14.33;9.93;;;;;;;17.82;64.11;97817.41;5053029;28;20232;-76
2023/07/03 00:17:27;;;;;;;16.47;9.93;;;;;;;17.75;62.79;97827.66;5052693;28;20735;-76
2023/07/03 00:19:54;;;;;;;16.67;10.10;;;;;;;17.82;62.16;97828.16;5053060;28;20212;-76
2023/07/03 00:22:20;;;;;;;17.70;10.47;;;;;;;17.86;61.96;97826.56;5052916;28;20212;-76
2023/07/03 00:24:47;;;;;;;17.33;10.30;;;;;;;17.91;61.90;97817.69;5052597;28;20205;-76
2023/07/03 00:27:13;;;;;;;19.20;10.73;;;;;;;17.87;62.23;97822.78;5052238;28;20231;-76
2023/07/03 00:29:39;;;;;;;16.53;10.17;;;;;;;17.92;62.80;97828.16;5053701;28;20201;-76
2023/07/03 00:32:06;;;;;;;17.37;10.33;;;;;;;17.91;63.53;97831.13;5056545;28;20283;-76
2023/07/03 00:34:33;;;;;;;15.10;10.27;;;;;;;17.96;63.27;97826.53;5056661;28;20216;-76
2023/07/03 00:36:59;;;;;;;17.23;10.50;;;;;;;17.92;65.26;97830.06;5056487;28;20225;-76
2023/07/03 00:39:26;;;;;;;17.07;10.93;;;;;;;17.88;64.01;97835.19;5056577;28;20205;-76
2023/07/03 00:41:52;;;;;;;15.77;10.30;;;;;;;17.90;62.83;97833.00;5056435;28;20208;-76
2023/07/03 00:44:20;;;;;;;17.60;10.83;;;;;;;17.87;65.19;97828.16;5056174;28;20672;-76
2023/07/03 00:46:49;;;;;;;17.33;10.40;;;;;;;17.89;61.99;97827.91;5056341;28;20232;-77
2023/07/03 00:49:17;;;;;;;17.20;10.67;;;;;;;17.92;63.11;97828.16;5056322;28;20227;-76
2023/07/03 00:51:49;;;;;;;14.23;10.57;;;;;;;17.97;63.12;97825.44;5056158;28;20209;-76
2023/07/03 00:54:16;;;;;;;18.53;11.17;;;;;;;17.94;63.20;97823.31;5055844;28;20817;-76
2023/07/03 00:56:42;;;;;;;16.97;10.77;;;;;;;17.93;64.79;97823.59;5056069;28;20281;-76
2023/07/03 00:59:09;;;;;;;16.10;10.50;;;;;;;17.94;63.44;97819.81;5056120;28;20292;-76
2023/07/03 01:01:56;;;;;;;15.73;10.20;;;;;;;17.90;62.94;97818.75;5056004;28;20201;-76
2023/07/03 01:04:35;;;;;;;16.30;9.97;;;;;;;17.97;63.19;97824.66;5055981;28;20225;-76
2023/07/03 01:07:07;;;;;;;17.07;10.47;;;;;;;17.95;63.51;97822.25;5056209;28;20229;-76
2023/07/03 01:09:40;;;;;;;21.17;10.37;;;;;;;17.99;64.23;97812.56;5055970;28;20202;-76
2023/07/03 01:12:08;;;;;;;16.00;10.47;;;;;;;17.99;62.84;97809.88;5055608;28;20637;-76
2023/07/03 01:14:36;;;;;;;17.00;11.27;;;;;;;17.91;63.74;97815.00;5055851;28;20201;-76
2023/07/03 01:17:04;;;;;;;19.50;11.67;;;;;;;17.94;64.68;97809.06;5055466;28;20233;-76
2023/07/03 01:19:33;;;;;;;17.77;10.63;;;;;;;18.01;62.77;97812.28;5054843;28;20599;-76
2023/07/03 01:22:06;;;;;;;17.30;10.90;;;;;;;18.05;63.55;97810.66;5055527;28;20209;-76
2023/07/03 01:24:39;;;;;;;17.53;10.63;;;;;;;18.03;63.80;97807.44;5055726;28;20209;-76
2023/07/03 01:27:08;;;;;;;17.33;10.13;;;;;;;18.01;65.28;97805.00;5054216;28;20244;-76
2023/07/03 01:29:36;;;;;;;19.57;10.97;;;;;;;18.04;63.22;97809.03;5054441;28;20667;-76
2023/07/03 01:32:07;;;;;;;18.03;10.50;;;;;;;17.98;65.71;97816.31;5055587;28;20209;-76
2023/07/03 01:34:33;;;;;;;21.63;11.13;;;;;;;18.04;63.90;97811.72;5055283;28;20663;-76
2023/07/03 01:37:02;;;;;;;16.13;10.07;;;;;;;18.06;62.17;97809.59;5055129;28;20233;-76
2023/07/03 01:39:28;;;;;;;18.17;10.13;;;;;;;18.12;61.36;97805.78;5055459;28;20205;-76
2023/07/03 01:41:56;;;;;;;18.70;10.30;;;;;;;18.14;62.70;97799.06;5055166;28;20205;-76
2023/07/03 01:44:22;;;;;;;14.93;10.37;;;;;;;18.17;61.00;97803.91;5054113;28;20212;-76
2023/07/03 01:46:48;;;;;;;17.33;9.77;;;;;;;18.22;60.39;97803.88;5055155;28;20225;-76
2023/07/03 01:49:16;;;;;;;15.60;9.87;;;;;;;18.24;60.20;97804.41;5055256;28;20209;-76
2023/07/03 01:52:22;;;;;;;17.00;9.77;;;;;;;18.26;59.47;97804.13;5055096;28;20209;-76
2023/07/03 01:54:58;;;;;;;17.90;10.57;;;;;;;18.26;59.99;97804.97;5055020;28;20201;-76
2023/07/03 01:57:36;;;;;;;16.40;10.03;;;;;;;18.26;59.88;97802.28;5054871;28;20707;-76
2023/07/03 02:00:05;;;;;;;16.13;10.10;;;;;;;18.27;59.99;97795.81;5054772;28;20189;-76
2023/07/03 02:02:32;;;;;;;20.03;10.47;;;;;;;18.25;59.80;97800.66;5054865;28;20212;-76
2023/07/03 02:05:08;;;;;;;15.53;9.57;;;;;;;18.27;60.00;97790.41;5054544;28;20209;-76
2023/07/03 02:07:36;;;;;;;17.13;10.30;;;;;;;18.27;59.80;97797.69;5053298;28;20232;-76
2023/07/03 02:10:03;;;;;;;15.30;9.83;;;;;;;18.28;60.88;97783.16;5054748;28;20229;-76
2023/07/03 02:12:30;;;;;;;18.57;9.50;;;;;;;18.28;60.65;97791.22;5054693;28;20205;-76
2023/07/03 02:15:02;;;;;;;15.70;9.83;;;;;;;18.30;60.03;97789.88;5054330;28;20215;-76
2023/07/03 02:17:28;;;;;;;19.33;9.77;;;;;;;18.31;60.21;97794.19;5054310;28;20655;-76
2023/07/03 02:19:55;;;;;;;18.80;10.43;;;;;;;18.33;60.88;97789.34;5053949;28;20650;-76
2023/07/03 02:22:22;;;;;;;16.77;9.83;;;;;;;18.29;61.25;97796.34;5054617;28;20263;-76
2023/07/03 02:24:48;;;;;;;20.00;9.53;;;;;;;18.33;59.81;97794.72;5054675;28;20291;-76
2023/07/03 02:27:15;;;;;;;16.27;10.27;;;;;;;18.31;60.10;97796.88;5054021;28;20244;-76
2023/07/03 02:29:41;;;;;;;15.27;10.03;;;;;;;18.34;59.87;97793.66;5054146;28;20672;-76
2023/07/03 02:32:09;;;;;;;15.73;9.73;;;;;;;18.34;59.86;97792.84;5054469;28;20216;-76
2023/07/03 02:34:36;;;;;;;19.50;10.77;;;;;;;18.29;60.13;97799.03;5054345;28;20253;-76
2023/07/03 02:37:02;;;;;;;16.53;9.97;;;;;;;18.31;59.32;97796.88;5054303;28;20221;-76
2023/07/03 02:39:29;;;;;;;15.67;9.70;;;;;;;18.25;59.86;97792.59;5054324;28;20205;-76
2023/07/03 02:41:56;;;;;;;16.63;10.13;;;;;;;18.25;60.36;97797.97;5054266;28;20262;-76
2023/07/03 02:44:22;;;;;;;17.30;10.03;;;;;;;18.28;60.68;97791.22;5054261;28;20201;-76
2023/07/03 02:46:48;;;;;;;15.73;9.80;;;;;;;18.25;59.83;97783.69;5054029;28;20229;-76
2023/07/03 02:49:15;;;;;;;13.97;9.33;;;;;;;18.27;59.77;97786.94;5053952;28;20232;-76
2023/07/03 02:51:41;;;;;;;16.80;9.90;;;;;;;18.24;59.76;97782.88;5053730;28;20568;-76
2023/07/03 02:54:10;;;;;;;16.63;9.50;;;;;;;18.24;59.96;97788.25;5053590;28;20584;-76
2023/07/03 02:56:37;;;;;;;16.03;10.10;;;;;;;18.20;60.71;97783.72;5054082;28;20229;-76
2023/07/03 02:59:03;;;;;;;17.10;10.17;;;;;;;18.19;60.40;97779.41;5053957;28;20209;-76
2023/07/03 03:01:30;;;;;;;16.77;9.90;;;;;;;18.15;60.62;97784.53;5053929;28;20197;-76
2023/07/03 03:03:58;;;;;;;16.97;10.10;;;;;;;18.14;60.83;97796.38;5054084;28;20197;-76
2023/07/03 03:06:24;;;;;;;20.93;9.93;;;;;;;18.12;60.66;97789.66;5053770;28;20232;-75
2023/07/03 03:08:51;;;;;;;18.37;10.27;;;;;;;18.14;60.77;97784.81;5053709;28;20212;-76
2023/07/03 03:11:17;;;;;;;16.50;9.87;;;;;;;18.16;60.79;97786.16;5053377;28;20688;-76
2023/07/03 03:13:44;;;;;;;16.13;9.70;;;;;;;18.17;60.78;97784.25;5053224;28;20232;-76
2023/07/03 03:16:10;;;;;;;18.87;10.03;;;;;;;18.17;60.64;97781.56;5053583;28;20311;-76
2023/07/03 03:18:36;;;;;;;14.93;10.10;;;;;;;18.11;61.03;97780.78;5053258;28;20205;-76
2023/07/03 03:21:03;;;;;;;16.57;10.57;;;;;;;18.14;60.99;97782.13;5053335;28;20668;-76
2023/07/03 03:23:29;;;;;;;17.23;10.80;;;;;;;18.16;60.97;97780.78;5053533;28;20206;-76
2023/07/03 03:25:56;;;;;;;15.57;10.10;;;;;;;18.18;60.79;97785.88;5053276;28;20232;-76
2023/07/03 03:28:22;;;;;;;18.27;11.03;;;;;;;18.19;60.90;97782.91;5053536;28;20205;-76
2023/07/03 03:30:48;;;;;;;19.63;10.73;;;;;;;18.19;60.80;97780.22;5053388;28;20205;-76
2023/07/03 03:33:15;;;;;;;15.93;10.70;;;;;;;18.20;61.00;97781.03;5053348;28;20239;-76
2023/07/03 03:35:42;;;;;;;19.50;10.00;;;;;;;18.17;61.34;97770.81;5053556;28;20206;-76
2023/07/03 03:38:08;;;;;;;14.00;9.20;;;;;;;18.21;60.91;97777.25;5053243;28;20208;-76
2023/07/03 03:40:35;;;;;;;15.37;9.80;;;;;;;18.21;61.95;97775.38;5052954;28;20216;-76
2023/07/03 03:43:01;;;;;;;16.80;10.30;;;;;;;18.18;61.68;97780.50;5053309;28;20201;-76
2023/07/03 03:45:27;;;;;;;15.37;10.00;;;;;;;18.15;61.50;97781.84;5053404;28;20220;-76
2023/07/03 03:47:54;;;;;;;14.77;9.90;;;;;;;18.14;62.04;97782.91;5052864;28;20209;-76
2023/07/03 03:50:20;;;;;;;16.63;9.70;;;;;;;18.17;62.71;97781.56;5053639;28;20219;-76
2023/07/03 03:52:46;;;;;;;18.87;10.63;;;;;;;18.19;62.43;97780.22;5053198;28;20202;-76
2023/07/03 03:55:13;;;;;;;14.00;9.80;;;;;;;18.21;61.46;97778.06;5053184;28;20660;-76
2023/07/03 03:57:39;;;;;;;17.53;9.57;;;;;;;18.17;62.13;97784.25;5053091;28;20221;-76
2023/07/03 04:00:10;;;;;;;16.13;10.23;;;;;;;18.15;62.47;97786.44;5053108;28;20201;-76
2023/07/03 04:02:37;;;;;;;14.43;9.83;;;;;;;18.18;62.51;97784.00;5052909;28;20248;-76
2023/07/03 04:05:03;;;;;;;15.00;9.67;;;;;;;18.19;62.10;97785.59;5055407;28;20506;-76
2023/07/03 04:07:29;;;;;;;16.73;10.30;;;;;;;18.18;62.38;97792.06;5056287;28;20731;-76
2023/07/03 04:09:56;;;;;;;18.87;10.07;;;;;;;18.19;62.61;97795.56;5056507;28;20672;-76
2023/07/03 04:12:22;;;;;;;16.60;8.87;;;;;;;18.20;63.05;97786.41;5055750;28;20209;-76
2023/07/03 04:14:49;;;;;;;20.80;9.80;;;;;;;18.21;64.07;97791.53;5056623;28;20225;-76
2023/07/03 04:17:15;;;;;;;15.70;9.97;;;;;;;18.22;63.91;97790.44;5056606;28;20225;-76
2023/07/03 04:19:41;;;;;;;17.13;9.83;;;;;;;18.21;62.66;97802.28;5056136;28;20579;-76
2023/07/03 04:22:08;;;;;;;16.57;9.00;;;;;;;18.23;63.06;97797.41;5056342;28;20205;-76
2023/07/03 04:24:34;;;;;;;13.13;8.90;;;;;;;18.27;62.56;97792.31;5047382;28;20245;-76
2023/07/03 04:27:02;;;;;;;15.40;9.67;;;;;;;18.26;63.85;97794.19;5040302;28;20233;-76
2023/07/03 04:29:29;;;;;;;15.07;9.67;;;;;;;18.30;64.33;97789.06;5055446;28;20685;-76
2023/07/03 04:31:55;;;;;;;14.27;10.20;;;;;;;18.29;63.99;97788.28;5055596;28;20656;-76
2023/07/03 04:34:22;;;;;;;17.43;9.63;;;;;;;18.30;63.14;97792.56;5054683;28;20723;-76
2023/07/03 04:36:48;;;;;;;14.10;9.20;;;;;;;18.32;64.69;97797.69;5056198;28;20221;-76
2023/07/03 04:39:15;;;;;;;14.17;9.50;;;;;;;18.30;63.59;97800.66;5054110;28;20209;-76
2023/07/03 04:41:42;;;;;;;17.33;9.13;;;;;;;18.29;62.92;97799.03;5054702;28;20281;-76
2023/07/03 04:44:12;;;;;;;12.67;9.00;;;;;;;18.33;63.50;97808.19;5039271;28;20201;-76
2023/07/03 04:46:38;;;;;;;17.03;10.13;;;;;;;18.32;63.29;97808.44;5032540;28;20727;-76
2023/07/03 04:49:05;;;;;;;13.27;9.43;;;;;;;18.31;63.87;97807.63;5034208;28;20218;-76
2023/07/03 04:51:32;;;;;;;15.70;9.43;;;;;;;18.33;64.57;97807.41;5034576;28;20658;-76
2023/07/03 04:54:00;;;;;;;14.27;8.53;;;;;;;18.36;64.54;97812.22;5035911;28;20581;-76
2023/07/03 04:56:28;;;;;;;15.17;9.17;;;;;;;18.37;63.75;97814.63;5035984;28;20312;-76
2023/07/03 04:58:54;;;;;;;15.23;8.67;;;;;;;18.35;63.45;97811.41;5035932;28;20206;-76
2023/07/03 05:01:22;;;;;;;15.67;9.23;;;;;;;18.35;65.68;97808.72;5035875;28;20284;-76
2023/07/03 05:03:48;;;;;;;12.63;8.63;;;;;;;18.39;64.83;97812.50;5035818;28;20210;-76
2023/07/03 05:06:14;;;;;;;13.03;9.03;;;;;;;18.39;64.40;97812.50;5035770;28;20232;-76
2023/07/03 05:08:41;;;;;;;15.20;8.73;;;;;;;18.41;63.96;97820.28;5036151;28;20202;-76
2023/07/03 05:11:07;;;;;;;15.43;9.17;;;;;;;18.42;63.17;97817.31;5036121;28;20206;-76
2023/07/03 05:13:33;;;;;;;17.47;9.50;;;;;;;18.47;63.02;97824.56;5035581;28;20225;-76
2023/07/03 05:16:00;;;;;;;14.47;9.17;;;;;;;18.54;63.85;97822.38;5035008;28;20229;-76
2023/07/03 05:18:26;;;;;;;12.73;8.90;;;;;;;18.49;63.28;97822.41;5035634;28;20232;-76
2023/07/03 05:20:53;;;;;;;14.20;9.07;;;;;;;18.53;63.09;97831.53;5035439;28;20245;-76
2023/07/03 05:23:19;;;;;;;14.20;8.77;;;;;;;18.54;63.14;97831.28;5035562;28;20206;-76
2023/07/03 05:25:49;;;;;;;14.53;8.70;;;;;;;18.52;63.33;97833.44;5036110;28;20218;-76
2023/07/03 05:28:15;;;;;;;12.97;8.40;;;;;;;18.56;63.39;97836.38;5034757;28;20209;-76
2023/07/03 05:30:41;;;;;;;14.93;8.90;;;;;;;18.57;63.74;97832.59;5035472;28;20209;-76
2023/07/03 05:33:10;;;;;;;14.47;8.47;;;;;;;18.66;64.35;97831.78;5035194;28;20206;-76
2023/07/03 05:35:37;;;;;;;12.47;8.67;;;;;;;18.67;63.37;97841.47;5034919;28;20202;-76
2023/07/03 05:38:04;;;;;;;15.23;9.23;;;;;;;18.69;64.53;97844.66;5035169;28;20202;-76
2023/07/03 05:40:30;;;;;;;12.80;8.47;;;;;;;18.68;63.56;97842.28;5035102;28;20206;-76
2023/07/03 05:42:57;;;;;;;13.67;8.97;;;;;;;18.74;63.98;97849.25;5034914;28;20202;-76
2023/07/03 05:45:23;;;;;;;13.80;8.90;;;;;;;18.85;63.88;97842.72;5034381;28;20240;-76
2023/07/03 05:47:49;;;;;;;14.20;8.83;;;;;;;18.90;62.73;97834.59;5034762;28;20226;-76
2023/07/03 05:50:16;;;;;;;13.90;8.60;;;;;;;19.06;62.74;97836.16;5034873;28;20206;-76
2023/07/03 05:52:44;;;;;;;14.07;8.40;;;;;;;19.09;63.19;97833.69;5034599;28;20240;-76
2023/07/03 05:55:11;;;;;;;16.23;8.50;;;;;;;19.11;63.06;97845.03;5034545;28;20316;-76
2023/07/03 05:57:38;;;;;;;14.63;8.87;;;;;;;19.15;63.64;97843.38;5034347;28;20751;-76
2023/07/03 06:00:12;;;;;;;14.70;8.17;;;;;;;19.17;62.77;97840.38;5034760;28;20213;-76
2023/07/03 06:02:39;;;;;;;13.73;8.97;;;;;;;19.25;63.07;97846.03;5034906;28;20205;-76
2023/07/03 06:05:06;;;;;;;13.63;8.20;;;;;;;19.34;62.84;97854.34;5034469;28;20213;-76
2023/07/03 06:07:32;;;;;;;13.93;8.43;;;;;;;19.32;61.60;97848.44;5034581;28;20222;-76
2023/07/03 06:09:58;;;;;;;12.80;8.30;;;;;;;19.42;63.38;97853.75;5034401;28;20206;-74
2023/07/03 06:12:29;;;;;;;14.83;8.90;;;;;;;19.39;61.71;97847.03;5034364;28;20590;-73
2023/07/03 06:14:57;;;;;;;12.17;8.40;;;;;;;19.41;63.35;97849.44;5033844;28;20209;-73
2023/07/03 06:17:25;;;;;;;13.30;8.47;;;;;;;19.39;61.44;97852.44;5034003;28;20280;-73
2023/07/03 06:19:52;;;;;;;13.93;8.07;;;;;;;19.43;63.61;97853.47;5034178;28;20225;-73
2023/07/03 06:22:19;;;;;;;13.33;7.87;;;;;;;19.59;62.36;97860.34;5034208;28;20213;-73
2023/07/03 06:24:46;;;;;;;16.00;8.30;;;;;;;19.59;60.77;97860.34;5033728;28;20563;-73
2023/07/03 06:27:13;;;;;;;12.80;8.03;;;;;;;19.49;62.14;97870.41;5032861;28;20234;-73
2023/07/03 06:29:40;;;;;;;14.70;8.10;;;;;;;19.63;61.41;97859.81;5033169;28;20216;-73
2023/07/03 06:32:07;;;;;;;13.37;8.47;;;;;;;19.67;62.76;97867.84;5033493;28;20684;-73
2023/07/03 06:34:34;;;;;;;16.03;8.13;;;;;;;19.60;61.03;97856.56;5033382;28;20233;-73
2023/07/03 06:37:02;;;;;;;12.93;8.20;;;;;;;19.64;61.50;97862.22;5033244;28;20226;-73
2023/07/03 06:39:29;;;;;;;12.63;8.03;;;;;;;19.72;60.68;97866.22;5033867;28;20206;-73
2023/07/03 06:41:55;;;;;;;12.83;8.20;;;;;;;19.63;60.03;97870.59;5033786;28;20209;-73
2023/07/03 06:44:22;;;;;;;13.40;7.97;;;;;;;19.64;59.25;97867.63;5033772;28;20198;-73
2023/07/03 06:46:50;;;;;;;12.97;7.70;;;;;;;19.73;59.88;97878.59;5033305;28;20225;-73
2023/07/03 06:49:17;;;;;;;12.50;7.73;;;;;;;19.73;59.21;97868.63;5033803;28;20213;-73
2023/07/03 06:51:44;;;;;;;11.80;8.53;;;;;;;19.84;60.01;97883.63;5033471;28;20673;-73
2023/07/03 06:54:10;;;;;;;13.83;8.10;;;;;;;19.94;59.99;97871.97;5033528;28;20321;-73
2023/07/03 06:56:36;;;;;;;17.57;8.90;;;;;;;19.98;60.77;97875.72;5033238;28;20735;-73
2023/07/03 06:59:03;;;;;;;11.37;7.27;;;;;;;20.02;60.02;97872.16;5033374;28;20565;-74
2023/07/03 07:01:29;;;;;;;14.67;7.83;;;;;;;19.97;58.57;97871.38;5033673;28;20206;-73
2023/07/03 07:03:56;;;;;;;12.27;7.27;;;;;;;20.01;59.54;97880.53;5033377;28;20692;-73
2023/07/03 07:06:25;;;;;;;11.53;7.60;;;;;;;20.00;58.73;97878.94;5033552;28;20225;-73
2023/07/03 07:08:53;;;;;;;15.70;7.63;;;;;;;19.88;59.23;97879.28;5033638;28;20201;-73
2023/07/03 07:11:27;;;;;;;11.00;7.53;;;;;;;19.87;59.33;97882.28;5033535;28;20251;-73
2023/07/03 07:13:57;;;;;;;13.70;7.27;;;;;;;19.81;60.66;97868.00;5033459;28;20216;-73
2023/07/03 07:16:27;;;;;;;11.30;7.70;;;;;;;19.86;60.61;97875.28;5033393;28;20230;-73
2023/07/03 07:18:56;;;;;;;14.07;8.23;;;;;;;19.82;60.67;97874.22;5033509;28;20190;-73
2023/07/03 07:21:24;;;;;;;12.50;8.37;;;;;;;19.77;61.33;97875.88;5033019;28;20206;-74
2023/07/03 07:24:03;;;;;;;13.87;8.03;;;;;;;19.76;62.51;97878.06;5033106;28;20669;-73
2023/07/03 07:26:34;;;;;;;14.40;8.20;;;;;;;19.71;61.57;97886.97;5033244;28;20717;-73
2023/07/03 07:29:04;;;;;;;12.40;7.70;;;;;;;19.57;60.03;97877.91;5033228;28;20205;-73
2023/07/03 07:31:32;;;;;;;19.30;7.97;;;;;;;19.53;60.27;97890.34;5033147;28;20209;-73
2023/07/03 07:33:58;;;;;;;13.87;8.43;;;;;;;19.50;60.22;97883.63;5032762;28;20223;-73
2023/07/03 07:36:27;;;;;;;12.70;8.17;;;;;;;19.48;60.63;97882.28;5033140;28;20226;-73
2023/07/03 07:38:54;;;;;;;10.83;7.33;;;;;;;19.51;61.82;97885.22;5032556;28;20731;-73
2023/07/03 07:41:21;;;;;;;14.40;8.03;;;;;;;19.61;60.77;97878.97;5032995;28;20206;-73
2023/07/03 07:43:49;;;;;;;14.37;8.30;;;;;;;19.69;61.07;97887.25;5032691;28;20212;-72
2023/07/03 07:46:16;;;;;;;14.63;8.10;;;;;;;19.55;61.99;97880.88;5032656;28;20341;-72
2023/07/03 07:48:42;;;;;;;13.27;7.80;;;;;;;19.52;64.42;97888.72;5032923;28;20217;-72
2023/07/03 07:51:11;;;;;;;13.37;8.37;;;;;;;19.55;64.18;97886.28;5033200;28;20210;-72
2023/07/03 07:53:37;;;;;;;12.00;7.90;;;;;;;19.48;64.72;97889.59;5032886;28;20268;-72
2023/07/03 07:56:07;;;;;;;15.93;9.10;;;;;;;19.48;64.26;97893.88;5033050;28;20238;-73
2023/07/03 07:58:33;;;;;;;14.00;8.50;;;;;;;19.60;64.70;97890.84;5033157;28;20253;-73
2023/07/03 08:01:00;;;;;;;15.80;7.83;;;;;;;19.67;63.64;97896.72;5033440;28;20673;-73
2023/07/03 08:03:27;;;;;;;13.83;7.53;;;;;;;19.85;61.94;97906.03;5032759;28;20699;-73
2023/07/03 08:05:58;;;;;;;14.27;8.07;;;;;;;19.97;63.43;97898.38;5032946;28;20218;-73
2023/07/03 08:08:26;;;;;;;12.23;7.77;;;;;;;20.13;62.49;97898.03;5033078;28;20217;-73
2023/07/03 08:10:56;;;;;;;13.43;8.10;;;;;;;20.08;62.62;97887.25;5033030;28;20271;-73
2023/07/03 08:13:23;;;;;;;14.53;8.43;;;;;;;20.21;61.16;97896.59;5032800;28;20576;-72
2023/07/03 08:15:51;;;;;;;14.93;8.60;;;;;;;20.14;64.38;97894.22;5032629;28;20234;-72
2023/07/03 08:18:18;;;;;;;14.50;8.60;;;;;;;20.06;63.56;97896.69;5032673;28;20665;-72
2023/07/03 08:20:45;;;;;;;18.37;8.87;;;;;;;19.73;63.48;97901.00;5032877;28;20213;-72
2023/07/03 08:23:11;;;;;;;16.27;8.50;;;;;;;19.67;65.33;97907.50;5032895;28;20206;-72
2023/07/03 08:25:38;;;;;;;15.70;8.47;;;;;;;19.54;64.90;97900.06;5032342;28;20233;-72
2023/07/03 08:28:05;;;;;;;13.87;8.63;;;;;;;19.73;64.36;97901.78;5032795;28;20708;-72
2023/07/03 08:30:32;;;;;;;14.73;8.50;;;;;;;20.00;64.30;97908.63;5032377;28;20670;-72
2023/07/03 08:32:58;;;;;;;14.80;8.43;;;;;;;19.96;63.84;97911.06;5032668;28;20206;-72
2023/07/03 08:35:25;;;;;;;16.93;8.37;;;;;;;20.04;64.01;97904.25;5032590;28;20218;-72
2023/07/03 08:37:52;;;;;;;13.03;8.27;;;;;;;20.17;63.08;97909.84;5032499;28;20261;-72
2023/07/03 08:40:20;;;;;;;15.37;8.07;;;;;;;20.15;62.75;97906.63;5032327;28;20206;-72
2023/07/03 08:42:57;;;;;;;14.73;8.80;;;;;;;20.20;65.19;97905.75;5032235;28;20208;-72
2023/07/03 08:45:30;;;;;;;12.97;8.50;;;;;;;20.25;64.51;97903.03;5032424;28;20646;-72
2023/07/03 08:47:59;;;;;;;15.43;8.43;;;;;;;20.21;63.31;97904.69;5032529;28;20198;-72
2023/07/03 08:50:26;;;;;;;13.17;7.57;;;;;;;20.07;64.17;97912.59;5033119;28;20689;-72
2023/07/03 08:52:57;;;;;;;13.13;7.70;;;;;;;19.90;62.49;97904.09;5035843;28;20545;-72
2023/07/03 08:55:35;;;;;;;18.03;8.00;;;;;;;19.84;61.90;97913.31;5036305;28;20583;-72
2023/07/03 08:58:02;;;;;;;13.33;7.73;;;;;;;20.40;61.04;97908.28;5036350;28;20194;-72
2023/07/03 09:00:34;;;;;;;15.97;7.77;;;;;;;20.48;60.24;97911.16;5035509;28;20696;-72
2023/07/03 09:03:33;;;;;;;19.53;7.43;;;;;;;20.54;59.95;97909.22;5035824;28;20194;-72
2023/07/03 09:06:09;;;;;;;15.10;7.70;;;;;;;20.69;59.33;97901.75;5034297;28;20317;-72
2023/07/03 09:09:02;;;;;;;12.70;7.83;;;;;;;20.70;59.68;97903.38;5034553;28;20649;-72
2023/07/03 09:11:32;;;;;;;12.20;8.03;;;;;;;20.38;58.92;97905.88;5043207;28;20241;-72
2023/07/03 09:14:03;;;;;;;12.27;7.67;;;;;;;20.53;59.90;97907.63;5036130;28;20205;-72
2023/07/03 09:16:31;;;;;;;13.13;7.47;;;;;;;20.46;58.91;97901.72;5035901;28;20260;-72
2023/07/03 09:19:03;;;;;;;14.60;7.90;;;;;;;20.26;58.88;97910.84;5035344;28;20665;-72
2023/07/03 09:21:32;;;;;;;12.73;7.90;;;;;;;20.31;58.86;97912.69;5035441;28;20194;-72
2023/07/03 09:24:10;;;;;;;15.03;7.40;;;;;;;20.44;58.97;97915.53;5035168;28;20665;-72
2023/07/03 09:26:46;;;;;;;14.40;7.87;;;;;;;20.67;58.08;97913.94;5035153;28;20233;-72
2023/07/03 09:29:13;;;;;;;14.37;7.73;;;;;;;21.03;56.56;97904.38;5035564;28;20201;-72
2023/07/03 09:31:39;;;;;;;14.70;7.23;;;;;;;21.13;57.41;97904.25;5035325;28;20288;-72
2023/07/03 09:34:06;;;;;;;12.43;7.43;;;;;;;21.11;57.73;97906.44;5035427;28;20296;-72
2023/07/03 09:36:35;;;;;;;15.73;7.37;;;;;;;21.07;56.45;97911.59;5035654;28;20232;-73
2023/07/03 09:39:18;;;;;;;14.90;7.20;;;;;;;20.93;55.65;97905.28;5034987;28;20210;-73
2023/07/03 09:41:45;;;;;;;15.27;6.77;;;;;;;21.14;56.32;97908.56;5035183;28;20241;-73
2023/07/03 09:44:17;;;;;;;10.77;6.43;;;;;;;21.54;52.95;97908.81;5035175;28;20205;-72
2023/07/03 09:46:46;;;;;;;12.30;6.47;;;;;;;21.53;53.62;97899.06;5035007;28;20715;-72
2023/07/03 09:49:17;;;;;;;11.80;6.03;;;;;;;21.64;49.64;97903.25;5034975;28;20209;-72
2023/07/03 09:51:44;;;;;;;13.33;6.40;;;;;;;21.87;50.71;97898.88;5035080;28;20258;-72
2023/07/03 09:54:20;;;;;;;11.67;6.07;;;;;;;22.10;49.21;97890.66;5035053;28;20213;-72
2023/07/03 09:56:49;;;;;;;10.17;6.10;;;;;;;21.94;49.54;97910.16;5034366;28;20228;-72
2023/07/03 09:59:19;;;;;;;12.33;5.87;;;;;;;21.79;49.33;97905.75;5034314;28;20209;-73
2023/07/03 10:01:46;;;;;;;13.47;6.50;;;;;;;22.07;49.65;97896.63;5034506;28;20205;-72
2023/07/03 10:04:16;;;;;;;14.43;6.03;;;;;;;22.45;47.63;97905.47;5034640;28;20293;-73
2023/07/03 10:06:58;;;;;;;14.03;6.07;;;;;;;22.77;47.18;97897.31;5034596;28;20221;-73
2023/07/03 10:09:29;;;;;;;10.47;5.43;;;;;;;22.67;45.37;97902.94;5035059;28;20221;-73
2023/07/03 10:12:02;;;;;;;9.77;5.10;;;;;;;22.81;44.19;97901.03;5033231;28;20191;-73
2023/07/03 10:14:55;;;;;;;9.55;5.53;;;;;;;22.57;43.88;97908.53;5034485;28;20366;-73
2023/07/03 10:17:31;;;;;;;12.65;5.55;;;;;;;22.46;44.95;97917.94;5035416;28;20268;-73
2023/07/03 10:20:03;;;;;;;9.55;5.45;;;;;;;22.60;44.94;97906.03;5034778;28;20205;-73
2023/07/03 10:22:30;;;;;;;8.65;5.15;;;;;;;22.51;45.20;97904.31;5034763;28;20198;-73
2023/07/03 10:25:04;;;;;;;8.43;5.30;;;;;;;22.66;44.42;97912.97;5034534;28;20201;-73
2023/07/03 10:27:32;;;;;;;9.63;5.67;;;;;;;22.69;45.09;97911.53;5033002;28;20627;-73
2023/07/03 10:30:00;;;;;;;9.15;5.35;;;;;;;23.01;44.23;97906.06;5034550;28;20293;-73
2023/07/03 10:32:32;;;;;;;7.13;4.70;;;;;;;22.68;43.50;97907.25;5034319;28;20206;-73
2023/07/03 10:35:08;;;;;;;11.30;5.07;;;;;;;23.28;43.67;97906.03;5033977;28;20217;-73
2023/07/03 10:37:43;;;;;;;10.23;5.28;;;;;;;23.17;44.15;97905.44;5032896;28;20272;-73
2023/07/03 10:40:22;;;;;;;9.15;5.15;;;;;;;22.62;43.50;97906.56;5034429;28;20281;-73
2023/07/03 10:42:55;;;;;;;9.93;4.97;;;;;;;22.51;44.14;97905.13;5032968;28;20186;-73
2023/07/03 10:45:22;;;;;;;7.68;4.10;;;;;;;22.48;44.49;97916.53;5033884;28;20244;-73
2023/07/03 10:47:56;;;;;;;6.60;4.00;;;;;;;22.51;43.39;97913.25;5033834;28;20237;-73
2023/07/03 10:50:31;;;;;;;6.32;3.60;;;;;;;22.29;43.57;97909.56;5033988;28;20194;-72
2023/07/03 10:53:23;;;;;;;5.88;3.25;;;;;;;22.18;44.23;97908.13;5032702;28;20198;-72
2023/07/03 10:56:13;;;;;;;8.07;3.92;;;;;;;22.20;45.10;97908.63;5032237;28;20685;-72
2023/07/03 10:58:49;;;;;;;6.43;3.60;;;;;;;22.35;45.54;97916.50;5033701;28;20194;-72
2023/07/03 11:01:24;;;;;;;6.57;3.90;;;;;;;22.11;46.33;97913.13;5033261;28;20634;-72
2023/07/03 11:04:07;;;;;;;7.88;4.20;;;;;;;22.47;48.23;97906.81;5033557;28;20256;-73
2023/07/03 11:07:29;;;;;;;8.50;3.97;;;;;;;22.53;45.89;97918.38;5016816;28;20229;-73
2023/07/03 11:10:10;;;;;;;8.82;4.00;;;;;;;23.07;45.90;97902.91;5022830;28;20214;-73
2023/07/03 11:12:46;;;;;;;9.25;3.92;;;;;;;23.27;44.11;97907.16;5032580;28;20556;-73
2023/07/03 11:15:30;;;;;;;7.03;3.92;;;;;;;23.44;44.83;97899.19;5033451;28;20229;-73
2023/07/03 11:18:10;;;;;;;7.95;4.00;;;;;;;23.56;45.16;97908.41;5032925;28;20633;-72
2023/07/03 11:20:56;;;;;;;7.72;3.92;;;;;;;22.93;45.25;97914.91;5032682;28;20638;-73
2023/07/03 11:23:43;;;;;;;9.70;4.07;;;;;;;22.38;46.23;97910.50;5033436;28;20197;-72
2023/07/03 11:26:26;;;;;;;8.98;4.55;;;;;;;22.51;46.77;97907.81;5032811;28;20238;-73
2023/07/03 11:28:55;;;;;;;7.95;4.60;;;;;;;22.44;47.24;97922.84;5031747;28;20664;-72
2023/07/03 11:31:26;;;;;;;9.95;4.80;;;;;;;22.88;46.56;97906.88;5033138;28;20229;-72
2023/07/03 11:33:54;;;;;;;10.00;4.97;;;;;;;23.27;46.24;97909.88;5033013;28;20634;-72